Time;durP1;ratioP1;P1;durP2;ratioP2;P2;SDS_P1;SDS_P2;PMS_P1;PMS_P2;Temp;Humidity;BMP_temperature;BMP_pressure;BME280_temperature;BME280_humidity;BME280_pressure;Samples;Min_cycle;Max_cycle;Signal;HPM_P1;HPM_P2
2022/08/28 00:01:59;;;;;;;9.03;8.10;;;20.50;99.90;;;;;;6224353;28;20233;-63
2022/08/28 00:05:02;;;;;;;9.47;8.57;;;20.50;99.90;;;;;;6224395;28;20233;-63
2022/08/28 00:08:06;;;;;;;8.93;8.03;;;20.40;99.90;;;;;;6224189;28;20233;-62
2022/08/28 00:11:11;;;;;;;9.93;8.50;;;20.30;99.90;;;;;;6222737;28;20232;-62
2022/08/28 00:14:14;;;;;;;9.53;8.60;;;20.30;99.90;;;;;;6225543;28;20244;-62
2022/08/28 00:17:17;;;;;;;10.20;9.13;;;20.20;99.90;;;;;;6224449;28;20232;-63
2022/08/28 00:20:22;;;;;;;8.63;8.00;;;20.10;99.90;;;;;;6224592;28;20239;-63
2022/08/28 00:23:25;;;;;;;8.53;7.50;;;20.10;99.90;;;;;;6224287;28;20221;-63
2022/08/28 00:30:08;;;;;;;9.57;8.70;;;20.00;99.90;;;;;;6224556;28;20251;-63
2022/08/28 00:33:18;;;;;;;9.13;8.43;;;20.00;99.90;;;;;;6223992;28;20225;-63
2022/08/28 00:36:22;;;;;;;8.97;8.27;;;19.90;99.90;;;;;;6224749;28;20225;-63
2022/08/28 00:39:25;;;;;;;8.80;8.00;;;19.90;99.90;;;;;;6224483;28;20233;-63
2022/08/28 00:42:33;;;;;;;8.93;8.13;;;19.90;99.90;;;;;;6223988;28;20544;-63
2022/08/28 00:45:37;;;;;;;8.67;7.87;;;20.00;99.90;;;;;;6224893;28;20236;-63
2022/08/28 00:48:42;;;;;;;8.60;7.90;;;20.10;99.90;;;;;;6225021;28;20229;-63
2022/08/28 00:55:12;;;;;;;9.37;8.33;;;20.10;99.90;;;;;;6224957;28;20249;-64
2022/08/28 00:58:18;;;;;;;9.77;8.80;;;20.10;99.90;;;;;;6225455;28;20232;-64
2022/08/28 01:01:22;;;;;;;8.50;7.70;;;20.10;99.90;;;;;;6225337;28;20243;-63
2022/08/28 01:04:31;;;;;;;7.50;6.90;;;20.00;99.90;;;;;;6225139;28;20225;-65
2022/08/28 01:07:35;;;;;;;8.40;7.60;;;20.10;99.90;;;;;;6225013;28;20229;-64
2022/08/28 01:10:40;;;;;;;8.23;7.40;;;20.10;99.90;;;;;;6224906;28;20239;-63
2022/08/28 01:13:47;;;;;;;9.37;8.50;;;20.10;99.90;;;;;;6225530;28;20228;-63
2022/08/28 01:16:54;;;;;;;10.03;9.03;;;19.90;99.90;;;;;;6225162;28;20249;-64
2022/08/28 01:20:02;;;;;;;9.00;8.10;;;19.90;99.90;;;;;;6225106;28;20288;-63
2022/08/28 01:23:12;;;;;;;8.70;7.90;;;19.90;99.90;;;;;;6224971;28;20640;-64
2022/08/28 01:26:18;;;;;;;8.60;7.70;;;20.00;99.90;;;;;;6224715;28;20634;-63
2022/08/28 01:29:21;;;;;;;9.77;8.77;;;20.00;99.90;;;;;;6225330;28;20233;-64
2022/08/28 01:32:34;;;;;;;8.87;7.90;;;20.00;99.90;;;;;;6226957;28;20552;-63
2022/08/28 01:35:41;;;;;;;11.30;8.60;;;19.90;99.90;;;;;;6229730;28;20239;-63
2022/08/28 01:38:50;;;;;;;8.00;7.40;;;19.90;99.90;;;;;;6229443;28;20239;-63
2022/08/28 01:41:58;;;;;;;8.70;7.93;;;19.90;99.90;;;;;;6229397;28;20700;-63
2022/08/28 01:45:01;;;;;;;9.10;8.40;;;19.90;99.90;;;;;;6229039;28;20696;-63
2022/08/28 01:48:05;;;;;;;8.67;7.83;;;19.80;99.90;;;;;;6229076;28;20237;-63
2022/08/28 01:51:10;;;;;;;8.97;8.17;;;19.80;99.90;;;;;;6229390;28;20574;-63
2022/08/28 01:54:13;;;;;;;10.87;9.80;;;19.80;99.90;;;;;;6229199;28;20237;-63
2022/08/28 01:57:19;;;;;;;10.27;9.27;;;19.70;99.90;;;;;;6228611;28;20353;-63
2022/08/28 02:00:26;;;;;;;9.93;8.93;;;19.60;99.90;;;;;;6229824;28;20280;-63
2022/08/28 02:03:32;;;;;;;9.00;8.17;;;19.50;99.90;;;;;;6228892;28;20618;-63
2022/08/28 02:06:36;;;;;;;9.00;8.20;;;19.60;99.90;;;;;;6228841;28;20235;-63
2022/08/28 02:09:39;;;;;;;10.87;9.87;;;19.70;99.90;;;;;;6228672;28;20691;-64
2022/08/28 02:12:44;;;;;;;9.10;8.20;;;19.70;99.90;;;;;;6228556;28;20244;-63
2022/08/28 02:15:47;;;;;;;9.50;8.60;;;19.80;99.90;;;;;;6223781;28;20233;-63
2022/08/28 02:18:51;;;;;;;9.40;7.90;;;19.80;99.90;;;;;;6228590;28;20232;-63
2022/08/28 02:21:54;;;;;;;10.33;9.00;;;19.70;99.90;;;;;;6228586;28;20235;-64
2022/08/28 02:24:57;;;;;;;10.00;9.00;;;19.80;99.90;;;;;;6228384;28;20708;-64
2022/08/28 02:28:01;;;;;;;8.67;7.73;;;19.80;99.90;;;;;;6228403;28;20237;-63
2022/08/28 02:31:07;;;;;;;11.07;8.43;;;19.70;99.90;;;;;;6228224;28;20237;-63
2022/08/28 02:34:10;;;;;;;10.77;9.77;;;19.70;99.90;;;;;;6228172;28;20229;-63
2022/08/28 02:37:14;;;;;;;8.43;7.73;;;19.70;99.90;;;;;;6228129;28;20229;-63
2022/08/28 02:40:19;;;;;;;10.23;9.13;;;19.70;99.90;;;;;;6228082;28;20237;-63
2022/08/28 02:43:24;;;;;;;9.20;7.77;;;19.70;99.90;;;;;;6227553;28;20229;-63
2022/08/28 02:46:27;;;;;;;10.53;8.07;;;19.70;99.90;;;;;;6227649;28;20233;-63
2022/08/28 02:49:31;;;;;;;10.60;9.67;;;19.60;99.90;;;;;;6227702;28;20287;-63
2022/08/28 02:52:38;;;;;;;9.87;8.87;;;19.50;99.90;;;;;;6227751;28;20253;-63
2022/08/28 02:55:42;;;;;;;10.07;9.23;;;19.50;99.90;;;;;;6227286;28;20328;-63
2022/08/28 02:58:46;;;;;;;10.80;9.83;;;19.50;99.90;;;;;;6227735;28;20303;-63
2022/08/28 03:01:50;;;;;;;10.47;9.33;;;19.40;99.90;;;;;;6227875;28;20215;-63
2022/08/28 03:04:54;;;;;;;11.40;10.40;;;19.40;99.90;;;;;;6227598;28;20226;-63
2022/08/28 03:07:57;;;;;;;10.83;9.93;;;19.40;99.90;;;;;;6227270;28;20248;-63
2022/08/28 03:11:01;;;;;;;9.03;8.23;;;19.40;99.90;;;;;;6227630;28;20232;-63
2022/08/28 03:14:05;;;;;;;9.37;8.57;;;19.40;99.90;;;;;;6227086;28;20229;-63
2022/08/28 03:17:09;;;;;;;10.53;9.50;;;19.30;99.90;;;;;;6227429;28;20312;-63
2022/08/28 03:20:13;;;;;;;10.63;9.53;;;19.40;99.90;;;;;;6227236;28;20239;-63
2022/08/28 03:23:28;;;;;;;11.37;10.10;;;19.40;99.90;;;;;;6227140;28;20232;-63
2022/08/28 03:26:32;;;;;;;11.27;10.17;;;19.40;99.90;;;;;;6226904;28;20291;-63
2022/08/28 03:29:38;;;;;;;10.43;9.43;;;19.40;99.90;;;;;;6226828;28;20681;-63
2022/08/28 03:32:41;;;;;;;12.13;9.53;;;19.30;99.90;;;;;;6226669;28;20688;-63
2022/08/28 03:35:44;;;;;;;11.30;10.23;;;19.40;99.90;;;;;;6226721;28;20577;-63
2022/08/28 03:38:48;;;;;;;10.13;9.20;;;19.30;99.90;;;;;;6226826;28;20558;-63
2022/08/28 03:41:51;;;;;;;10.03;9.20;;;19.30;99.90;;;;;;6226505;28;20692;-63
2022/08/28 03:44:55;;;;;;;10.87;9.87;;;19.20;99.90;;;;;;6226546;28;20237;-63
2022/08/28 03:47:59;;;;;;;11.37;10.07;;;19.20;99.90;;;;;;6226288;28;20724;-62
2022/08/28 03:51:06;;;;;;;10.47;9.57;;;19.30;99.90;;;;;;6226604;28;20674;-63
2022/08/28 03:54:09;;;;;;;9.90;9.00;;;19.20;99.90;;;;;;6225761;28;20229;-63
2022/08/28 03:57:12;;;;;;;10.73;9.73;;;19.20;99.90;;;;;;6226130;28;20233;-62
2022/08/28 04:00:18;;;;;;;10.20;9.40;;;19.20;99.90;;;;;;6226008;28;20240;-62
2022/08/28 04:03:21;;;;;;;14.40;9.73;;;19.10;99.90;;;;;;6226232;28;20251;-62
2022/08/28 04:06:26;;;;;;;10.87;9.83;;;19.10;99.90;;;;;;6226239;28;20239;-62
2022/08/28 04:09:29;;;;;;;10.03;9.13;;;19.10;99.90;;;;;;6226165;28;20233;-63
2022/08/28 04:12:32;;;;;;;9.80;8.90;;;19.00;99.90;;;;;;6226082;28;20225;-63
2022/08/28 04:15:39;;;;;;;11.10;10.03;;;19.00;99.90;;;;;;6225812;28;20732;-63
2022/08/28 04:18:43;;;;;;;8.90;8.10;;;19.00;99.90;;;;;;6225922;28;20240;-62
2022/08/28 04:21:47;;;;;;;9.40;8.50;;;19.00;99.90;;;;;;6225761;28;20683;-62
2022/08/28 04:24:50;;;;;;;9.47;8.50;;;19.00;99.90;;;;;;6216408;28;20307;-63
2022/08/28 04:27:53;;;;;;;8.70;7.97;;;19.10;99.90;;;;;;6225475;28;20569;-62
2022/08/28 04:30:58;;;;;;;10.43;9.53;;;19.00;99.90;;;;;;6225522;28;20255;-62
2022/08/28 04:34:03;;;;;;;10.20;9.20;;;19.00;99.90;;;;;;6225683;28;20243;-62
2022/08/28 04:37:06;;;;;;;10.47;9.53;;;19.00;99.90;;;;;;6225389;28;20370;-62
2022/08/28 04:40:11;;;;;;;9.60;8.80;;;19.00;99.90;;;;;;6225506;28;20233;-62
2022/08/28 04:43:15;;;;;;;10.10;9.23;;;19.00;99.90;;;;;;6225745;28;20569;-62
2022/08/28 04:46:20;;;;;;;9.37;8.57;;;19.00;99.90;;;;;;6225311;28;20697;-63
2022/08/28 04:49:23;;;;;;;8.20;7.50;;;19.00;99.90;;;;;;6225143;28;20724;-63
2022/08/28 04:52:28;;;;;;;8.80;7.83;;;19.00;99.90;;;;;;6225545;28;20557;-63
2022/08/28 04:55:31;;;;;;;8.80;8.07;;;19.00;99.90;;;;;;6224998;28;20243;-63
2022/08/28 04:58:54;;;;;;;6.70;6.20;;;18.90;99.90;;;;;;6224861;28;20296;-62
2022/08/28 05:01:59;;;;;;;8.13;7.47;;;18.90;99.90;;;;;;6225505;28;20201;-62
2022/08/28 05:05:03;;;;;;;7.87;7.10;;;18.90;99.90;;;;;;6225786;28;20233;-62
2022/08/28 05:08:06;;;;;;;8.70;7.93;;;18.90;99.90;;;;;;6230470;28;20237;-63
2022/08/28 05:11:11;;;;;;;9.13;8.23;;;19.00;99.90;;;;;;6230415;28;20248;-62
2022/08/28 05:14:15;;;;;;;8.43;7.70;;;19.00;99.90;;;;;;6230179;28;20240;-62
2022/08/28 05:17:19;;;;;;;8.07;7.37;;;19.00;99.90;;;;;;6229851;28;20255;-63
2022/08/28 05:20:22;;;;;;;8.00;7.30;;;19.10;99.90;;;;;;6229569;28;20237;-62
2022/08/28 05:23:26;;;;;;;8.87;8.10;;;19.20;99.90;;;;;;6229993;28;20233;-62
2022/08/28 05:26:29;;;;;;;7.40;6.77;;;19.30;99.90;;;;;;6225113;28;20673;-62
2022/08/28 05:29:32;;;;;;;8.77;7.97;;;19.40;99.90;;;;;;6229576;28;20714;-62
2022/08/28 05:32:37;;;;;;;9.80;8.90;;;19.40;99.90;;;;;;6229732;28;20229;-62
2022/08/28 05:35:42;;;;;;;8.47;7.67;;;19.50;99.90;;;;;;6229403;28;20241;-62
2022/08/28 05:38:45;;;;;;;9.37;8.47;;;19.60;99.90;;;;;;6229147;28;20233;-62
2022/08/28 05:41:48;;;;;;;9.97;8.97;;;19.80;99.90;;;;;;6229422;28;20229;-62
2022/08/28 05:44:51;;;;;;;9.33;8.43;;;20.00;99.90;;;;;;6229029;28;20576;-62
2022/08/28 05:47:58;;;;;;;7.73;7.00;;;20.40;99.90;;;;;;6229468;28;20229;-62
2022/08/28 05:51:07;;;;;;;7.87;7.10;;;21.00;99.90;;;;;;6229150;28;20237;-63
2022/08/28 05:54:11;;;;;;;7.97;7.27;;;21.60;99.90;;;;;;6229356;28;20229;-63
2022/08/28 05:57:14;;;;;;;7.40;6.77;;;22.00;99.90;;;;;;6228721;28;20239;-63
2022/08/28 06:00:18;;;;;;;6.90;6.33;;;22.40;99.90;;;;;;6228872;28;20239;-63
2022/08/28 06:03:23;;;;;;;7.53;6.93;;;22.90;99.90;;;;;;6229018;28;20247;-63
2022/08/28 06:06:28;;;;;;;6.23;5.73;;;23.30;99.90;;;;;;6228814;28;20233;-63
2022/08/28 06:09:32;;;;;;;6.97;6.27;;;23.70;99.90;;;;;;6228748;28;20576;-62
2022/08/28 06:12:35;;;;;;;7.83;7.13;;;23.90;99.90;;;;;;6228774;28;20228;-62
2022/08/28 06:15:42;;;;;;;10.30;7.23;;;24.10;99.90;;;;;;6228922;28;20233;-62
2022/08/28 06:18:46;;;;;;;9.10;7.60;;;24.30;99.90;;;;;;6227653;28;20255;-64
2022/08/28 06:21:53;;;;;;;6.93;6.33;;;24.70;99.90;;;;;;6228459;28;20237;-63
2022/08/28 06:24:57;;;;;;;7.50;6.80;;;25.00;99.90;;;;;;6228524;28;20661;-64
2022/08/28 06:28:00;;;;;;;8.47;7.77;;;25.60;99.90;;;;;;6228458;28;20241;-63
2022/08/28 06:31:06;;;;;;;7.63;6.93;;;25.90;99.90;;;;;;6227998;28;20236;-64
2022/08/28 06:34:29;;;;;;;8.23;7.37;;;25.70;99.90;;;;;;6228230;28;20229;-64
2022/08/28 06:37:32;;;;;;;7.80;7.20;;;25.50;99.90;;;;;;6227975;28;20244;-63
2022/08/28 06:40:40;;;;;;;8.33;6.80;;;25.50;99.90;;;;;;6228178;28;20227;-63
2022/08/28 06:43:43;;;;;;;7.67;6.97;;;25.30;99.90;;;;;;6228179;28;20213;-63
2022/08/28 06:46:47;;;;;;;9.50;8.60;;;25.30;99.90;;;;;;6228507;28;20220;-64
2022/08/28 06:49:53;;;;;;;8.63;7.93;;;25.30;99.90;;;;;;6227767;28;20239;-62
2022/08/28 06:52:56;;;;;;;7.80;7.10;;;25.10;99.90;;;;;;6228101;28;20602;-62
2022/08/28 06:56:01;;;;;;;8.40;7.60;;;25.10;99.90;;;;;;6227334;28;20281;-62
2022/08/28 06:59:04;;;;;;;9.50;8.40;;;25.00;99.90;;;;;;6227909;28;20240;-62
2022/08/28 07:02:08;;;;;;;9.23;8.50;;;24.90;99.90;;;;;;6227639;28;20228;-62
2022/08/28 07:05:14;;;;;;;8.80;8.10;;;24.90;99.90;;;;;;6227285;28;20367;-62
2022/08/28 07:08:17;;;;;;;8.90;8.10;;;24.80;99.90;;;;;;6227208;28;20681;-64
2022/08/28 07:11:23;;;;;;;9.90;8.90;;;24.80;99.90;;;;;;6226636;28;20704;-62
2022/08/28 07:14:28;;;;;;;9.90;8.93;;;24.70;99.90;;;;;;6227334;28;20224;-64
2022/08/28 07:17:31;;;;;;;9.30;8.23;;;24.70;99.90;;;;;;6227045;28;20599;-63
2022/08/28 07:20:35;;;;;;;10.50;9.40;;;24.70;99.90;;;;;;6227317;28;20232;-63
2022/08/28 07:23:40;;;;;;;8.63;7.70;;;24.70;99.90;;;;;;6225964;28;20220;-63
2022/08/28 07:26:45;;;;;;;8.17;7.57;;;24.80;99.90;;;;;;6226628;28;20263;-63
2022/08/28 07:29:49;;;;;;;9.30;8.50;;;24.70;99.90;;;;;;6225737;28;20560;-63
2022/08/28 07:32:52;;;;;;;9.20;8.30;;;24.70;99.90;;;;;;6226684;28;20243;-63
2022/08/28 07:35:58;;;;;;;8.87;8.13;;;24.80;99.90;;;;;;6216745;28;20244;-63
2022/08/28 07:39:01;;;;;;;8.73;7.97;;;24.80;99.90;;;;;;6226937;28;20221;-64
2022/08/28 07:42:05;;;;;;;7.73;7.13;;;25.00;99.90;;;;;;6225742;28;20221;-65
2022/08/28 07:45:08;;;;;;;8.03;7.37;;;25.10;99.90;;;;;;6224671;28;20351;-65
2022/08/28 07:48:11;;;;;;;8.33;7.63;;;25.30;99.90;;;;;;6225259;28;20225;-65
2022/08/28 07:51:16;;;;;;;8.80;8.00;;;25.60;99.90;;;;;;6225845;28;20546;-64
2022/08/28 07:54:19;;;;;;;7.60;6.90;;;26.00;99.90;;;;;;6225587;28;20229;-66
2022/08/28 07:57:23;;;;;;;8.93;8.13;;;26.40;99.40;;;;;;6225799;28;20240;-65
2022/08/28 08:00:26;;;;;;;8.47;7.77;;;26.90;98.70;;;;;;6226114;28;20231;-64
2022/08/28 08:03:30;;;;;;;8.77;7.97;;;27.30;97.80;;;;;;6226192;28;20224;-64
2022/08/28 08:06:36;;;;;;;8.27;7.47;;;27.60;96.10;;;;;;6226145;28;20581;-65
2022/08/28 08:09:41;;;;;;;8.40;7.60;;;28.00;95.40;;;;;;6224889;28;20657;-65
2022/08/28 08:12:45;;;;;;;9.27;7.97;;;28.30;95.10;;;;;;6226197;28;20303;-65
2022/08/28 08:15:49;;;;;;;7.93;7.13;;;28.80;93.80;;;;;;6225858;28;20243;-64
2022/08/28 08:18:52;;;;;;;6.73;6.20;;;29.20;93.20;;;;;;6226050;28;20232;-64
2022/08/28 08:21:57;;;;;;;6.30;5.80;;;29.70;90.70;;;;;;6225757;28;20235;-64
2022/08/28 08:25:02;;;;;;;6.57;6.07;;;29.80;90.10;;;;;;6225575;28;20660;-65
2022/08/28 08:28:06;;;;;;;6.20;5.70;;;30.20;88.20;;;;;;6225410;28;20232;-64
2022/08/28 08:31:11;;;;;;;7.43;6.72;;;31.00;85.10;;;;;;6225702;28;20229;-64
2022/08/28 08:34:16;;;;;;;7.80;7.00;;;31.80;80.90;;;;;;6225497;28;20235;-65
2022/08/28 08:37:21;;;;;;;7.10;6.50;;;32.00;77.50;;;;;;6225621;28;20339;-64
2022/08/28 08:40:24;;;;;;;8.30;7.60;;;31.90;78.10;;;;;;6224986;28;20722;-65
2022/08/28 08:43:30;;;;;;;8.93;7.60;;;31.40;80.20;;;;;;6215654;28;20225;-65
2022/08/28 08:46:38;;;;;;;9.30;8.55;;;31.00;81.70;;;;;;6225506;28;20240;-64
2022/08/28 08:49:47;;;;;;;8.93;8.13;;;30.60;83.20;;;;;;6224457;28;20681;-66
2022/08/28 08:53:08;;;;;;;12.27;9.48;;;30.10;84.60;;;;;;6222044;28;20227;-65
2022/08/28 08:56:15;;;;;;;10.03;8.83;;;30.10;86.20;;;;;;6217425;28;20233;-66
2022/08/28 08:59:21;;;;;;;9.83;9.10;;;30.10;86.70;;;;;;6225932;28;20228;-64
2022/08/28 09:02:29;;;;;;;11.37;10.37;;;29.50;89.60;;;;;;6225016;28;20228;-64
2022/08/28 09:05:42;;;;;;;8.77;8.17;;;29.50;88.90;;;;;;6224822;28;20244;-65
2022/08/28 09:08:52;;;;;;;9.10;8.40;;;29.60;88.50;;;;;;6222656;28;20232;-65
2022/08/28 09:11:58;;;;;;;9.50;8.70;;;29.80;88.30;;;;;;6224331;28;20574;-65
2022/08/28 09:15:09;;;;;;;9.55;8.82;;;30.20;87.40;;;;;;6224861;28;20229;-65
2022/08/28 09:18:15;;;;;;;10.00;9.10;;;30.70;83.70;;;;;;6225175;28;20613;-65
2022/08/28 09:21:25;;;;;;;10.07;9.18;;;31.00;83.30;;;;;;6224676;28;20220;-65
2022/08/28 09:24:35;;;;;;;9.98;9.18;;;31.30;82.40;;;;;;6224528;28;20315;-65
2022/08/28 09:27:46;;;;;;;9.23;8.43;;;31.50;81.40;;;;;;6224976;28;20228;-65
2022/08/28 09:30:56;;;;;;;10.25;9.38;;;31.90;80.50;;;;;;6224888;28;20707;-65
2022/08/28 09:34:28;;;;;;;9.27;8.38;;;32.50;77.30;;;;;;6225295;28;20233;-65
2022/08/28 09:37:31;;;;;;;8.18;7.38;;;32.60;76.20;;;;;;6224796;28;20233;-66
2022/08/28 09:43:53;;;;;;;8.82;8.07;;;33.30;73.70;;;;;;6214695;28;20239;-66
2022/08/28 09:46:57;;;;;;;9.23;8.52;;;33.80;72.00;;;;;;6224455;28;20248;-67
2022/08/28 09:50:26;;;;;;;9.48;8.77;;;34.00;70.90;;;;;;6224249;28;20224;-66
2022/08/28 09:53:31;;;;;;;8.50;7.90;;;33.80;70.20;;;;;;6227025;28;20228;-65
2022/08/28 09:56:43;;;;;;;8.93;8.32;;;33.40;71.60;;;;;;6228927;28;20246;-66
2022/08/28 09:59:46;;;;;;;8.90;8.20;;;33.30;72.20;;;;;;6228990;28;20649;-66
2022/08/28 10:02:58;;;;;;;9.52;8.82;;;33.30;72.10;;;;;;6228614;28;20232;-65
2022/08/28 10:06:08;;;;;;;9.15;8.45;;;33.00;72.30;;;;;;6229404;28;20320;-65
2022/08/28 10:09:20;;;;;;;9.43;8.65;;;32.90;73.00;;;;;;6229078;28;20239;-67
2022/08/28 10:12:35;;;;;;;8.77;8.18;;;32.70;73.60;;;;;;6228889;28;20233;-66
2022/08/28 10:15:55;;;;;;;9.95;9.10;;;32.50;74.90;;;;;;6228567;28;20229;-67
2022/08/28 10:19:05;;;;;;;9.43;8.50;;;32.10;75.20;;;;;;6228510;28;20236;-66
2022/08/28 10:22:23;;;;;;;9.75;8.95;;;31.50;77.70;;;;;;6228692;28;20239;-66
2022/08/28 10:25:33;;;;;;;9.90;9.20;;;31.70;77.40;;;;;;6227794;28;20236;-67
2022/08/28 10:28:49;;;;;;;9.75;8.95;;;31.10;77.90;;;;;;6228595;28;20236;-66
2022/08/28 10:32:04;;;;;;;8.75;8.05;;;30.90;78.60;;;;;;6227973;28;20573;-69
2022/08/28 10:35:15;;;;;;;9.35;8.45;;;31.10;79.60;;;;;;6228424;28;20233;-66
2022/08/28 10:38:22;;;;;;;7.97;7.38;;;31.30;78.30;;;;;;6228033;28;20228;-66
2022/08/28 10:41:28;;;;;;;8.65;8.02;;;31.20;78.00;;;;;;6227848;28;20240;-66
2022/08/28 10:44:40;;;;;;;10.07;9.18;;;31.30;77.60;;;;;;6226668;28;20217;-66
2022/08/28 10:47:48;;;;;;;8.63;7.75;;;31.20;76.80;;;;;;6216222;28;20854;-66
2022/08/28 10:50:55;;;;;;;8.40;7.70;;;31.00;78.40;;;;;;6226968;28;20579;-66
2022/08/28 10:54:03;;;;;;;8.63;7.65;;;31.00;79.00;;;;;;6226611;28;20491;-66
2022/08/28 10:57:16;;;;;;;7.22;6.63;;;31.00;78.60;;;;;;6227576;28;20247;-66
2022/08/28 11:00:23;;;;;;;7.13;6.63;;;31.20;74.30;;;;;;6227581;28;20239;-65
2022/08/28 11:03:28;;;;;;;6.45;5.95;;;31.30;74.00;;;;;;6227020;28;20229;-67
2022/08/28 11:06:44;;;;;;;7.95;7.25;;;31.20;75.00;;;;;;6226702;28;20612;-65
2022/08/28 11:09:48;;;;;;;7.47;6.78;;;30.50;77.10;;;;;;6227008;28;20680;-65
2022/08/28 11:12:53;;;;;;;7.43;6.68;;;30.10;79.10;;;;;;6226588;28;20228;-66
2022/08/28 11:15:57;;;;;;;8.43;7.72;;;30.30;79.40;;;;;;6226939;28;20233;-66
2022/08/28 11:19:36;;;;;;;8.02;7.53;;;29.80;80.60;;;;;;6226733;28;20250;-65
2022/08/28 11:22:49;;;;;;;8.50;7.55;;;30.20;80.60;;;;;;6227214;28;20193;-67
2022/08/28 11:25:57;;;;;;;8.02;7.28;;;30.20;80.10;;;;;;6226745;28;20227;-67
2022/08/28 11:29:03;;;;;;;7.97;7.32;;;30.60;79.20;;;;;;6227018;28;20200;-68
2022/08/28 11:32:36;;;;;;;8.05;7.30;;;30.90;77.30;;;;;;6226115;28;20236;-67
2022/08/28 11:35:49;;;;;;;8.20;7.50;;;31.30;77.60;;;;;;6225461;28;20247;-69
2022/08/28 11:39:20;;;;;;;7.38;6.88;;;31.00;76.80;;;;;;6224889;28;20233;-68
2022/08/28 11:42:38;;;;;;;8.18;7.38;;;31.30;75.70;;;;;;6224976;28;20571;-68
2022/08/28 11:46:06;;;;;;;8.10;7.18;;;31.30;75.50;;;;;;6225888;28;20229;-69
2022/08/28 11:49:39;;;;;;;7.57;6.95;;;31.30;75.40;;;;;;6226746;28;20232;-68
2022/08/28 11:53:12;;;;;;;7.40;6.78;;;31.20;75.60;;;;;;6222509;28;20233;-68
2022/08/28 11:56:50;;;;;;;7.15;6.50;;;31.00;75.00;;;;;;6226201;28;20240;-68
2022/08/28 12:00:07;;;;;;;7.63;6.93;;;30.60;75.90;;;;;;6204737;28;20239;-68
2022/08/28 12:03:13;;;;;;;7.07;6.45;;;30.70;75.60;;;;;;6226325;28;20229;-68
2022/08/28 12:06:46;;;;;;;7.38;5.88;;;31.20;75.20;;;;;;6225781;28;20244;-67
2022/08/28 12:09:51;;;;;;;8.25;6.85;;;31.50;73.80;;;;;;6225815;28;20229;-68
2022/08/28 12:12:55;;;;;;;7.70;7.10;;;31.50;73.10;;;;;;6226083;28;20247;-68
2022/08/28 12:16:04;;;;;;;7.63;7.03;;;31.80;72.80;;;;;;6225076;28;20283;-68
2022/08/28 12:19:08;;;;;;;7.57;6.80;;;32.00;72.20;;;;;;6226019;28;20272;-68
2022/08/28 12:22:16;;;;;;;6.82;6.20;;;31.90;70.60;;;;;;6225628;28;20228;-68
2022/08/28 12:25:30;;;;;;;7.63;6.95;;;31.80;70.70;;;;;;6225745;28;20247;-68
2022/08/28 12:28:40;;;;;;;6.68;6.18;;;31.60;69.90;;;;;;6225630;28;20232;-68
2022/08/28 12:32:17;;;;;;;7.40;6.80;;;31.00;70.80;;;;;;6225686;28;20566;-68
2022/08/28 12:35:22;;;;;;;7.65;6.95;;;30.70;72.50;;;;;;6225234;28;20236;-68
2022/08/28 12:38:30;;;;;;;7.85;6.25;;;30.70;72.00;;;;;;6226029;28;20228;-68
2022/08/28 12:41:33;;;;;;;7.38;6.55;;;31.00;72.20;;;;;;6225356;28;20224;-68
2022/08/28 12:44:36;;;;;;;6.82;6.25;;;31.20;71.30;;;;;;6225870;28;20228;-68
2022/08/28 12:47:45;;;;;;;8.15;6.30;;;31.40;70.20;;;;;;6225358;28;20310;-67
2022/08/28 12:50:56;;;;;;;7.70;7.10;;;31.00;71.00;;;;;;6225228;28;20230;-67
2022/08/28 12:54:03;;;;;;;8.55;6.78;;;31.00;71.30;;;;;;6225262;28;20335;-68
2022/08/28 12:57:09;;;;;;;9.55;6.53;;;30.70;73.40;;;;;;6225087;28;20243;-68
2022/08/28 13:00:17;;;;;;;7.68;7.00;;;30.50;74.00;;;;;;6225430;28;20580;-67
2022/08/28 13:03:21;;;;;;;7.25;6.75;;;30.40;74.10;;;;;;6225556;28;20272;-68
2022/08/28 13:06:27;;;;;;;8.30;7.70;;;30.00;75.90;;;;;;6225009;28;20232;-67
2022/08/28 13:09:33;;;;;;;7.60;6.90;;;29.70;77.60;;;;;;6225590;28;20234;-67
2022/08/28 13:12:38;;;;;;;7.67;7.10;;;29.50;78.90;;;;;;6225300;28;20247;-67
2022/08/28 13:16:00;;;;;;;8.23;7.43;;;29.90;78.00;;;;;;6224908;28;20237;-69
2022/08/28 13:19:19;;;;;;;9.10;7.77;;;30.10;77.20;;;;;;6225032;28;20239;-68
2022/08/28 13:22:34;;;;;;;8.13;7.53;;;30.00;76.50;;;;;;6225175;28;20277;-68
2022/08/28 13:25:39;;;;;;;7.80;7.00;;;30.10;75.80;;;;;;6224899;28;20233;-68
2022/08/28 13:28:43;;;;;;;6.95;6.32;;;30.10;75.70;;;;;;6228098;28;20232;-68
2022/08/28 13:31:58;;;;;;;10.10;7.67;;;30.10;76.10;;;;;;6229906;28;20603;-67
2022/08/28 13:35:33;;;;;;;8.00;7.30;;;30.10;77.10;;;;;;6229658;28;20233;-67
2022/08/28 13:38:36;;;;;;;9.90;8.73;;;30.30;76.80;;;;;;6219437;28;20235;-67
2022/08/28 13:41:43;;;;;;;7.77;7.13;;;30.30;76.40;;;;;;6228874;28;20239;-67
2022/08/28 13:44:49;;;;;;;7.93;7.23;;;30.10;76.80;;;;;;6229508;28;20680;-67
2022/08/28 13:47:52;;;;;;;8.25;7.45;;;30.30;76.80;;;;;;6229219;28;20354;-67
2022/08/28 13:51:01;;;;;;;8.45;7.68;;;30.40;75.30;;;;;;6229148;28;20550;-67
2022/08/28 13:54:09;;;;;;;10.23;7.63;;;30.60;75.40;;;;;;6228785;28;20232;-67
2022/08/28 13:57:16;;;;;;;7.78;7.18;;;30.70;74.90;;;;;;6224374;28;20243;-68
2022/08/28 14:00:20;;;;;;;8.18;7.47;;;30.70;74.40;;;;;;6228776;28;20674;-68
2022/08/28 14:03:34;;;;;;;8.73;8.07;;;30.60;73.50;;;;;;6228733;28;20266;-67
2022/08/28 14:06:37;;;;;;;9.93;8.38;;;30.60;73.60;;;;;;6228640;28;20247;-67
2022/08/28 14:09:41;;;;;;;8.52;7.82;;;30.40;74.10;;;;;;6229018;28;20582;-67
2022/08/28 14:12:46;;;;;;;7.73;6.93;;;30.20;74.80;;;;;;6228491;28;20865;-67
2022/08/28 14:15:49;;;;;;;4.30;3.90;;;29.90;75.10;;;;;;6228216;28;20232;-67
2022/08/28 14:18:52;;;;;;;5.97;4.43;;;29.60;69.60;;;;;;6228764;28;20232;-67
2022/08/28 14:21:56;;;;;;;5.10;4.60;;;29.20;71.00;;;;;;6228161;28;20228;-67
2022/08/28 14:25:00;;;;;;;5.53;5.00;;;28.70;73.60;;;;;;6227957;28;20236;-67
2022/08/28 14:28:05;;;;;;;6.10;5.60;;;28.40;75.20;;;;;;6228243;28;20236;-67
2022/08/28 14:31:08;;;;;;;5.10;4.70;;;28.20;79.20;;;;;;6228307;28;20237;-67
2022/08/28 14:34:19;;;;;;;5.60;5.07;;;27.80;81.50;;;;;;6227914;28;20235;-67
2022/08/28 14:37:22;;;;;;;8.20;5.37;;;27.40;83.50;;;;;;6228199;28;20232;-67
2022/08/28 14:40:25;;;;;;;10.90;6.70;;;27.00;87.40;;;;;;6227505;28;20224;-67
2022/08/28 14:43:30;;;;;;;8.33;6.57;;;26.70;91.30;;;;;;6227778;28;20282;-67
2022/08/28 14:46:36;;;;;;;7.10;6.23;;;26.00;93.50;;;;;;6227727;28;20699;-67
2022/08/28 14:49:39;;;;;;;8.43;6.50;;;25.40;95.90;;;;;;6227785;28;20260;-67
2022/08/28 14:52:42;;;;;;;8.80;6.80;;;25.00;99.10;;;;;;6227521;28;20247;-67
2022/08/28 14:55:47;;;;;;;9.67;7.60;;;24.90;99.90;;;;;;6227102;28;20244;-67
2022/08/28 14:58:52;;;;;;;8.27;6.43;;;24.80;99.90;;;;;;6223566;28;20220;-67
2022/08/28 15:01:58;;;;;;;8.43;7.50;;;24.90;99.90;;;;;;6227991;28;20227;-67
2022/08/28 15:05:01;;;;;;;15.80;8.30;;;24.90;99.90;;;;;;6227229;28;20225;-67
2022/08/28 15:08:07;;;;;;;8.50;7.63;;;24.70;99.90;;;;;;6227526;28;20224;-67
2022/08/28 15:11:14;;;;;;;8.80;7.90;;;24.20;99.90;;;;;;6227004;28;20239;-67
2022/08/28 15:14:22;;;;;;;8.80;7.33;;;24.40;99.90;;;;;;6226926;28;20252;-67
2022/08/28 15:17:25;;;;;;;8.80;8.07;;;24.40;99.90;;;;;;6227175;28;20228;-67
2022/08/28 15:20:38;;;;;;;8.60;7.80;;;24.50;99.90;;;;;;6226858;28;20311;-67
2022/08/28 15:23:41;;;;;;;8.33;7.53;;;24.60;99.90;;;;;;6226981;28;20233;-67
2022/08/28 15:26:45;;;;;;;11.40;8.03;;;24.70;99.90;;;;;;6226986;28;20240;-67
2022/08/28 15:29:50;;;;;;;12.40;8.20;;;24.80;99.90;;;;;;6227054;28;20342;-67
2022/08/28 15:32:53;;;;;;;10.53;9.63;;;24.70;99.90;;;;;;6226675;28;20229;-67
2022/08/28 15:35:56;;;;;;;8.97;8.13;;;24.70;99.90;;;;;;6226777;28;20236;-68
2022/08/28 15:42:22;;;;;;;6.90;6.30;;;24.90;99.90;;;;;;6226597;28;20271;-67
2022/08/28 15:45:26;;;;;;;6.33;5.83;;;25.00;99.90;;;;;;6226427;28;20696;-67
2022/08/28 15:48:32;;;;;;;7.87;6.37;;;25.00;99.90;;;;;;6226336;28;20251;-68
2022/08/28 15:51:36;;;;;;;7.50;6.87;;;25.00;99.90;;;;;;6225437;28;20229;-67
2022/08/28 15:54:41;;;;;;;7.13;6.53;;;25.10;99.90;;;;;;6226697;28;20371;-67
2022/08/28 15:57:44;;;;;;;7.60;6.90;;;25.00;99.90;;;;;;6226293;28;20243;-67
2022/08/28 16:00:48;;;;;;;7.00;6.30;;;24.80;99.90;;;;;;6226328;28;20279;-67
2022/08/28 16:03:52;;;;;;;8.40;7.30;;;24.80;99.90;;;;;;6221609;28;20306;-67
2022/08/28 16:06:55;;;;;;;8.90;6.67;;;24.80;99.90;;;;;;6226021;28;20287;-67
2022/08/28 16:10:05;;;;;;;9.30;6.83;;;24.80;99.90;;;;;;6225203;28;20245;-67
2022/08/28 16:13:08;;;;;;;7.67;7.07;;;24.80;99.90;;;;;;6226093;28;20235;-67
2022/08/28 16:16:13;;;;;;;8.27;6.73;;;24.60;99.90;;;;;;6225555;28;20233;-68
2022/08/28 16:19:16;;;;;;;7.87;6.70;;;24.60;99.90;;;;;;6225791;28;20281;-67
2022/08/28 16:22:20;;;;;;;7.67;7.00;;;24.60;99.90;;;;;;6225493;28;20239;-67
2022/08/28 16:25:23;;;;;;;9.60;6.67;;;24.60;99.90;;;;;;6225928;28;20237;-67